createdAt,value
2023-03-21T00:01:05.302Z,17.30
2023-03-21T00:03:38.212Z,16.40
2023-03-21T00:06:13.634Z,17.52
2023-03-21T00:08:46.343Z,17.42
2023-03-21T00:11:20.273Z,17.55
2023-03-21T00:13:53.725Z,18.30
2023-03-21T00:16:30.122Z,17.75
2023-03-21T00:19:10.666Z,17.38
2023-03-21T00:24:39.603Z,16.50
2023-03-21T00:27:42.602Z,16.02
2023-03-21T00:30:07.225Z,17.42
2023-03-21T00:32:49.297Z,17.70
2023-03-21T00:35:57.412Z,16.52
2023-03-21T00:38:21.048Z,16.50
2023-03-21T00:40:53.926Z,18.23
2023-03-21T00:43:30.250Z,18.20
2023-03-21T00:46:03.271Z,17.13
2023-03-21T00:48:36.160Z,18.08
2023-03-21T00:51:27.303Z,18.02
2023-03-21T00:54:00.112Z,16.77
2023-03-21T00:56:33.677Z,18.25
2023-03-21T00:59:06.651Z,18.73
2023-03-21T01:01:39.231Z,18.33
2023-03-21T01:04:17.178Z,20.13
2023-03-21T01:06:49.747Z,18.90
2023-03-21T01:09:24.580Z,18.80
2023-03-21T01:11:57.349Z,19.42
2023-03-21T01:14:30.071Z,18.48
2023-03-21T01:17:02.590Z,18.17
2023-03-21T01:19:50.610Z,19.00
2023-03-21T01:22:24.624Z,18.40
2023-03-21T01:27:45.853Z,19.35
2023-03-21T01:30:22.762Z,18.40
2023-03-21T01:32:56.568Z,18.17
2023-03-21T01:35:32.002Z,17.77
2023-03-21T01:38:10.365Z,18.45
2023-03-21T01:40:46.803Z,17.25
2023-03-21T01:43:32.433Z,18.30
2023-03-21T01:46:51.491Z,17.35
2023-03-21T01:49:56.923Z,16.83
2023-03-21T01:52:42.118Z,15.57
2023-03-21T01:55:21.096Z,15.48
2023-03-21T01:58:06.784Z,16.08
2023-03-21T02:00:57.086Z,16.23
2023-03-21T02:03:50.584Z,17.77
2023-03-21T02:06:50.759Z,16.23
2023-03-21T02:09:48.534Z,16.05
2023-03-21T02:12:25.759Z,14.32
2023-03-21T02:14:58.898Z,15.63
2023-03-21T02:17:48.115Z,15.93
2023-03-21T02:20:27.680Z,16.20
2023-03-21T02:23:29.499Z,16.45
2023-03-21T02:26:10.939Z,16.48
2023-03-21T02:28:58.282Z,17.02
2023-03-21T02:31:57.117Z,16.65
2023-03-21T02:35:16.093Z,16.38
2023-03-21T02:38:12.910Z,16.90
2023-03-21T02:41:01.765Z,16.67
2023-03-21T02:47:20.917Z,17.48
2023-03-21T02:50:02.472Z,17.13
2023-03-21T02:52:39.596Z,17.27
2023-03-21T02:55:19.992Z,16.85
2023-03-21T02:58:11.829Z,16.65
2023-03-21T03:00:49.743Z,16.40
2023-03-21T03:03:37.241Z,16.40
2023-03-21T03:06:20.926Z,16.75
2023-03-21T03:09:09.382Z,16.20
2023-03-21T03:11:44.722Z,16.67
2023-03-21T03:15:18.055Z,16.92
2023-03-21T03:18:14.253Z,16.83
2023-03-21T03:21:03.312Z,17.35
2023-03-21T03:23:38.552Z,16.17
2023-03-21T03:26:23.782Z,16.70
2023-03-21T03:29:01.407Z,18.25
2023-03-21T03:31:39.702Z,18.10
2023-03-21T03:34:21.371Z,18.30
2023-03-21T03:36:58.150Z,18.10
2023-03-21T03:39:44.278Z,19.38
2023-03-21T03:42:29.226Z,19.65
2023-03-21T03:45:10.424Z,19.48
2023-03-21T03:47:57.583Z,19.65
2023-03-21T03:51:01.532Z,19.58
2023-03-21T03:53:59.737Z,19.30
2023-03-21T03:56:34.072Z,19.13
2023-03-21T03:59:08.152Z,19.58
2023-03-21T04:01:58.720Z,20.10
2023-03-21T04:04:32.061Z,19.33
2023-03-21T04:07:05.177Z,20.08
2023-03-21T04:09:44.713Z,18.13
2023-03-21T04:12:21.948Z,18.05
2023-03-21T04:15:29.698Z,16.63
2023-03-21T04:18:09.464Z,18.27
2023-03-21T04:20:42.550Z,18.15
2023-03-21T04:25:57.120Z,17.20
2023-03-21T04:28:52.054Z,17.70
2023-03-21T04:31:44.671Z,17.95
2023-03-21T04:37:23.938Z,18.60
2023-03-21T04:39:58.478Z,15.93
2023-03-21T04:42:31.351Z,15.88
2023-03-21T04:45:04.812Z,18.77
2023-03-21T04:47:37.797Z,17.08
2023-03-21T04:50:11.457Z,17.65
2023-03-21T04:52:45.188Z,18.30
2023-03-21T04:55:21.792Z,17.77
2023-03-21T04:57:54.887Z,17.85
2023-03-21T05:03:01.136Z,17.63
2023-03-21T05:05:33.938Z,17.25
2023-03-21T05:08:07.073Z,17.90
2023-03-21T05:10:39.876Z,17.52
2023-03-21T05:13:13.390Z,17.08
2023-03-21T05:15:45.945Z,17.77
2023-03-21T05:18:25.089Z,17.15
2023-03-21T05:21:18.481Z,18.42
2023-03-21T05:23:56.268Z,17.23
2023-03-21T05:26:28.730Z,19.25
2023-03-21T05:29:11.890Z,18.92
2023-03-21T05:31:45.788Z,18.75
2023-03-21T05:34:20.581Z,18.75
2023-03-21T05:36:55.186Z,19.25
2023-03-21T05:39:30.713Z,17.55
2023-03-21T05:42:10.011Z,16.63
2023-03-21T05:49:52.914Z,17.50
2023-03-21T05:52:27.033Z,19.77
2023-03-21T05:54:59.781Z,19.23
2023-03-21T05:57:39.326Z,18.17
2023-03-21T06:00:15.022Z,18.75
2023-03-21T06:03:00.305Z,17.90
2023-03-21T06:06:03.665Z,17.67
2023-03-21T06:08:42.151Z,17.58
2023-03-21T06:11:37.009Z,16.95
2023-03-21T06:14:28.316Z,15.18
2023-03-21T06:17:21.454Z,15.23
2023-03-21T06:20:04.560Z,15.30
2023-03-21T06:22:40.034Z,14.30
2023-03-21T06:25:13.106Z,15.88
2023-03-21T06:27:46.328Z,13.82
2023-03-21T06:30:20.028Z,13.15
2023-03-21T06:33:08.972Z,14.25
2023-03-21T06:35:42.706Z,13.05
2023-03-21T06:38:15.327Z,15.68
2023-03-21T06:40:48.969Z,13.73
2023-03-21T06:43:26.552Z,12.32
2023-03-21T06:46:00.852Z,10.88
2023-03-21T06:48:33.558Z,10.80
2023-03-21T06:51:06.881Z,9.93
2023-03-21T06:53:43.543Z,11.35
2023-03-21T06:56:16.249Z,11.10
2023-03-21T06:58:50.649Z,10.25
2023-03-21T07:01:58.823Z,10.30
2023-03-21T07:04:32.230Z,11.13
2023-03-21T07:07:04.939Z,10.25
2023-03-21T07:09:37.499Z,9.48
2023-03-21T07:12:12.047Z,10.35
2023-03-21T07:15:22.911Z,8.95
2023-03-21T07:17:57.022Z,8.73
2023-03-21T07:20:29.685Z,8.60
2023-03-21T07:23:02.187Z,10.25
2023-03-21T07:25:35.113Z,7.45
2023-03-21T07:28:09.401Z,7.50
2023-03-21T07:33:38.719Z,7.93
2023-03-21T07:36:13.833Z,8.40
2023-03-21T07:38:46.834Z,7.22
2023-03-21T07:41:21.295Z,7.70
2023-03-21T07:43:56.197Z,7.72
2023-03-21T07:46:34.242Z,7.95
2023-03-21T07:49:06.815Z,7.97
2023-03-21T07:51:39.374Z,7.78
2023-03-21T07:54:12.100Z,6.40
2023-03-21T07:56:45.151Z,7.13
2023-03-21T08:01:50.656Z,7.20
2023-03-21T08:04:23.255Z,7.10
2023-03-21T08:06:55.970Z,6.25
2023-03-21T08:09:30.130Z,6.28
2023-03-21T08:12:04.945Z,7.57
2023-03-21T08:14:37.580Z,7.38
2023-03-21T08:17:10.588Z,6.78
2023-03-21T08:19:43.123Z,6.70
2023-03-21T08:22:16.245Z,5.07
2023-03-21T08:27:21.134Z,4.93
2023-03-21T08:29:53.894Z,4.93
2023-03-21T08:32:29.988Z,5.60
2023-03-21T08:35:04.322Z,5.75
2023-03-21T08:37:41.147Z,4.50
2023-03-21T08:40:17.636Z,4.65
2023-03-21T08:42:50.095Z,5.25
2023-03-21T08:45:23.943Z,5.53
2023-03-21T08:48:00.634Z,5.25
2023-03-21T08:50:33.217Z,5.03
2023-03-21T08:53:05.980Z,4.75
2023-03-21T08:55:38.935Z,4.50
2023-03-21T08:58:11.937Z,4.40
2023-03-21T09:00:47.765Z,4.38
2023-03-21T09:03:21.255Z,4.68
2023-03-21T09:06:00.131Z,4.80
2023-03-21T09:08:32.614Z,4.72
2023-03-21T09:11:05.554Z,5.38
2023-03-21T09:14:07.701Z,4.82
2023-03-21T09:16:41.455Z,4.30
2023-03-21T09:19:14.638Z,4.85
2023-03-21T09:24:19.961Z,4.90
2023-03-21T09:26:53.161Z,4.45
2023-03-21T09:31:59.486Z,5.30
2023-03-21T09:34:32.142Z,5.15
2023-03-21T09:37:12.560Z,5.55
2023-03-21T09:39:45.691Z,5.32
2023-03-21T09:45:16.669Z,5.65
2023-03-21T09:47:53.535Z,5.38
2023-03-21T09:50:38.407Z,5.70
2023-03-21T09:53:31.155Z,4.30
2023-03-21T09:56:11.044Z,6.10
2023-03-21T09:58:54.954Z,5.82
2023-03-21T10:01:33.210Z,5.15
2023-03-21T10:04:07.622Z,5.68
2023-03-21T10:06:43.271Z,4.75
2023-03-21T10:09:23.244Z,5.50
2023-03-21T10:12:07.659Z,5.38
2023-03-21T10:14:44.700Z,4.53
2023-03-21T10:17:27.966Z,4.45
2023-03-21T10:20:15.605Z,3.80
2023-03-21T10:22:51.024Z,4.07
2023-03-21T10:25:33.571Z,5.05
2023-03-21T10:28:08.330Z,4.90
2023-03-21T10:30:53.339Z,5.60
2023-03-21T10:33:32.774Z,5.38
2023-03-21T10:36:11.930Z,5.43
2023-03-21T10:38:49.241Z,5.30
2023-03-21T10:41:21.881Z,4.30
2023-03-21T10:44:14.898Z,4.95
2023-03-21T10:46:59.513Z,4.40
2023-03-21T10:49:40.275Z,5.28
2023-03-21T10:52:17.868Z,5.20
2023-03-21T10:54:51.680Z,5.10
2023-03-21T10:57:26.136Z,5.63
2023-03-21T11:00:02.756Z,5.15
2023-03-21T11:02:38.135Z,4.68
2023-03-21T11:05:36.166Z,5.07
2023-03-21T11:08:18.293Z,5.00
2023-03-21T11:11:06.986Z,4.32
2023-03-21T11:13:44.668Z,4.22
2023-03-21T11:16:30.477Z,4.88
2023-03-21T11:19:13.114Z,3.80
2023-03-21T11:21:46.188Z,3.67
2023-03-21T11:24:20.279Z,4.32
2023-03-21T11:26:52.872Z,4.50
2023-03-21T11:29:31.417Z,3.72
2023-03-21T11:32:23.246Z,3.70
2023-03-21T11:35:14.337Z,3.28
2023-03-21T11:37:55.407Z,3.55
2023-03-21T11:40:36.493Z,4.18
2023-03-21T11:43:18.362Z,2.92
2023-03-21T11:45:58.527Z,4.25
2023-03-21T11:48:58.815Z,3.45
2023-03-21T11:51:41.538Z,3.55
2023-03-21T11:54:29.712Z,3.60
2023-03-21T11:57:24.812Z,3.85
2023-03-21T12:00:21.073Z,4.07
2023-03-21T12:06:34.351Z,3.90
2023-03-21T12:09:13.049Z,2.75
2023-03-21T12:12:32.952Z,3.20
2023-03-21T12:15:29.827Z,4.47
2023-03-21T12:18:11.492Z,4.63
2023-03-21T12:21:23.804Z,4.82
2023-03-21T12:24:20.108Z,4.28
2023-03-21T12:27:10.944Z,4.72
2023-03-21T12:30:01.186Z,4.30
2023-03-21T12:33:04.557Z,4.40
2023-03-21T12:35:55.251Z,4.50
2023-03-21T12:38:56.033Z,5.57
2023-03-21T12:41:41.144Z,5.03
2023-03-21T12:44:16.925Z,5.00
2023-03-21T12:47:13.730Z,5.75
2023-03-21T12:49:55.395Z,5.75
2023-03-21T12:52:36.016Z,5.78
2023-03-21T12:55:34.954Z,6.05
2023-03-21T12:58:23.130Z,6.50
2023-03-21T13:01:01.712Z,7.30
2023-03-21T13:03:45.611Z,8.02
2023-03-21T13:06:20.946Z,7.45
2023-03-21T13:08:58.633Z,7.03
2023-03-21T13:11:32.099Z,5.93
2023-03-21T13:14:04.652Z,6.18
2023-03-21T13:17:00.967Z,5.88
2023-03-21T13:19:58.965Z,6.32
2023-03-21T13:22:32.167Z,5.78
2023-03-21T13:27:55.612Z,6.25
2023-03-21T13:30:30.055Z,5.97
2023-03-21T13:33:19.871Z,5.82
2023-03-21T13:36:14.002Z,5.70
2023-03-21T13:38:51.908Z,5.35
2023-03-21T13:41:36.288Z,6.18
2023-03-21T13:44:21.214Z,5.50
2023-03-21T13:47:00.898Z,5.10
2023-03-21T13:49:38.402Z,5.35
2023-03-21T13:52:11.128Z,6.28
2023-03-21T13:54:48.366Z,5.93
2023-03-21T13:57:38.556Z,6.30
2023-03-21T14:00:31.211Z,6.40
2023-03-21T14:03:19.877Z,5.25
2023-03-21T14:05:53.085Z,4.15
2023-03-21T14:08:37.101Z,4.50
2023-03-21T14:11:18.077Z,4.75
2023-03-21T14:13:53.525Z,3.53
2023-03-21T14:16:28.838Z,5.03
2023-03-21T14:19:04.333Z,5.60
2023-03-21T14:21:37.052Z,5.28
2023-03-21T14:24:16.864Z,5.07
2023-03-21T14:26:54.696Z,6.50
2023-03-21T14:29:31.987Z,6.47
2023-03-21T14:32:06.186Z,7.90
2023-03-21T14:34:39.120Z,7.43
2023-03-21T14:37:12.270Z,7.82
2023-03-21T14:42:17.317Z,8.57
2023-03-21T14:44:55.217Z,9.15
2023-03-21T14:47:30.035Z,10.20
2023-03-21T14:50:05.639Z,10.27
2023-03-21T14:52:41.419Z,9.18
2023-03-21T14:55:17.033Z,9.52
2023-03-21T14:57:50.059Z,9.32
2023-03-21T15:00:33.045Z,9.43
2023-03-21T15:03:05.844Z,8.18
2023-03-21T15:05:39.374Z,9.00
2023-03-21T15:08:20.560Z,8.60
2023-03-21T15:11:08.425Z,9.20
2023-03-21T15:14:07.395Z,7.47
2023-03-21T15:16:40.197Z,9.50
2023-03-21T15:19:20.186Z,9.13
2023-03-21T15:21:56.566Z,8.60
2023-03-21T15:24:34.360Z,7.75
2023-03-21T15:27:17.660Z,8.93
2023-03-21T15:29:55.432Z,9.73
2023-03-21T15:32:30.599Z,7.82
2023-03-21T15:35:13.918Z,8.80
2023-03-21T15:37:54.129Z,8.88
2023-03-21T15:40:29.950Z,8.35
2023-03-21T15:43:17.474Z,7.30
2023-03-21T15:45:55.469Z,9.30
2023-03-21T15:48:34.401Z,8.07
2023-03-21T15:51:11.889Z,7.57
2023-03-21T15:53:44.712Z,7.07
2023-03-21T15:56:17.465Z,6.78
2023-03-21T15:58:53.081Z,6.43
2023-03-21T16:01:26.648Z,6.35
2023-03-21T16:04:07.232Z,6.68
2023-03-21T16:06:51.743Z,5.90
2023-03-21T16:09:24.715Z,6.35
2023-03-21T16:11:59.489Z,8.02
2023-03-21T16:14:31.999Z,6.90
2023-03-21T16:17:27.997Z,6.32
2023-03-21T16:20:01.521Z,5.95
2023-03-21T16:22:36.141Z,5.57
2023-03-21T16:25:09.681Z,6.25
2023-03-21T16:27:42.393Z,5.80
2023-03-21T16:30:17.760Z,6.30
2023-03-21T16:32:50.845Z,5.50
2023-03-21T16:35:25.236Z,6.85
2023-03-21T16:37:57.836Z,7.53
2023-03-21T16:40:41.302Z,6.88
2023-03-21T16:43:14.322Z,6.15
2023-03-21T16:45:47.093Z,7.13
2023-03-21T16:48:19.977Z,6.00
2023-03-21T16:50:52.540Z,6.45
2023-03-21T16:53:25.342Z,5.88
2023-03-21T16:56:02.829Z,5.38
2023-03-21T16:59:00.976Z,5.10
2023-03-21T17:01:36.187Z,6.10
2023-03-21T17:04:09.325Z,5.53
2023-03-21T17:06:50.352Z,5.00
2023-03-21T17:09:26.468Z,5.57
2023-03-21T17:11:59.202Z,6.50
2023-03-21T17:14:58.951Z,5.53
2023-03-21T17:17:31.476Z,6.60
2023-03-21T17:20:19.462Z,6.72
2023-03-21T17:22:53.546Z,5.90
2023-03-21T17:25:27.130Z,7.00
2023-03-21T17:27:59.910Z,7.25
2023-03-21T17:30:39.331Z,5.00
2023-03-21T17:33:12.278Z,4.80
2023-03-21T17:35:45.929Z,5.70
2023-03-21T17:38:18.727Z,3.95
2023-03-21T17:40:51.355Z,4.18
2023-03-21T17:43:24.024Z,3.45
2023-03-21T17:45:57.014Z,3.33
2023-03-21T17:48:32.663Z,4.10
2023-03-21T17:51:05.475Z,2.72
2023-03-21T17:53:37.950Z,2.85
2023-03-21T17:56:15.123Z,2.95
2023-03-21T17:58:47.808Z,2.92
2023-03-21T18:01:20.416Z,3.45
2023-03-21T18:03:55.162Z,3.95
2023-03-21T18:06:28.105Z,2.88
2023-03-21T18:09:01.617Z,3.55
2023-03-21T18:11:34.356Z,3.67
2023-03-21T18:14:16.483Z,3.47
2023-03-21T18:16:57.224Z,3.17
2023-03-21T18:19:30.102Z,3.28
2023-03-21T18:24:38.239Z,3.60
2023-03-21T18:27:12.405Z,3.20
2023-03-21T18:30:22.135Z,4.13
2023-03-21T18:32:38.608Z,3.95
2023-03-21T18:35:13.361Z,3.00
2023-03-21T18:37:47.067Z,3.50
2023-03-21T18:40:22.459Z,3.70
2023-03-21T18:43:56.034Z,4.63
2023-03-21T18:45:47.770Z,4.47
2023-03-21T18:48:20.434Z,4.95
2023-03-21T18:50:56.931Z,4.57
2023-03-21T18:53:30.889Z,4.28
2023-03-21T18:56:09.638Z,4.18
2023-03-21T18:58:42.956Z,4.43
2023-03-21T19:01:27.336Z,4.15
2023-03-21T19:04:21.287Z,4.32
2023-03-21T19:06:59.248Z,4.47
2023-03-21T19:09:58.141Z,4.10
2023-03-21T19:12:28.679Z,4.03
2023-03-21T19:15:06.385Z,4.50
2023-03-21T19:20:33.187Z,5.35
2023-03-21T19:23:09.358Z,5.25
2023-03-21T19:25:44.142Z,5.40
2023-03-21T19:28:17.202Z,5.13
2023-03-21T19:30:50.934Z,6.65
2023-03-21T19:33:24.905Z,6.03
2023-03-21T19:36:13.012Z,6.47
2023-03-21T19:38:51.153Z,7.05
2023-03-21T19:41:23.756Z,5.50
2023-03-21T19:43:57.458Z,6.32
2023-03-21T19:46:30.297Z,7.38
2023-03-21T19:49:04.632Z,7.60
2023-03-21T19:51:37.887Z,8.57
2023-03-21T19:54:10.446Z,7.57
2023-03-21T19:56:47.678Z,8.32
2023-03-21T19:59:20.826Z,8.77
2023-03-21T20:01:57.033Z,9.65
2023-03-21T20:04:33.789Z,8.65
2023-03-21T20:07:06.366Z,8.25
2023-03-21T20:09:51.320Z,8.63
2023-03-21T20:12:25.116Z,8.85
2023-03-21T20:15:09.545Z,9.50
2023-03-21T20:17:49.396Z,10.00
2023-03-21T20:20:21.903Z,10.75
2023-03-21T20:23:11.265Z,10.77
2023-03-21T20:25:45.861Z,11.10
2023-03-21T20:28:55.982Z,13.02
2023-03-21T20:31:32.805Z,12.32
2023-03-21T20:34:05.369Z,11.80
2023-03-21T20:36:40.494Z,14.48
2023-03-21T20:39:14.264Z,12.85
2023-03-21T20:41:46.996Z,13.10
2023-03-21T20:44:52.333Z,12.35
2023-03-21T20:47:13.650Z,12.68
2023-03-21T20:49:47.269Z,12.05
2023-03-21T20:55:41.696Z,14.05
2023-03-21T20:58:44.352Z,14.25
2023-03-21T21:01:14.277Z,13.55
2023-03-21T21:03:50.566Z,11.98
2023-03-21T21:06:23.137Z,11.90
2023-03-21T21:08:57.261Z,10.60
2023-03-21T21:14:24.218Z,9.35
2023-03-21T21:16:56.743Z,11.20
2023-03-21T21:19:29.326Z,11.13
2023-03-21T21:22:03.644Z,9.95
2023-03-21T21:24:41.508Z,10.43
2023-03-21T21:27:15.885Z,10.18
2023-03-21T21:29:50.209Z,9.02
2023-03-21T21:32:22.852Z,8.95
2023-03-21T21:34:56.665Z,8.60
2023-03-21T21:37:34.091Z,8.27
2023-03-21T21:40:15.903Z,8.77
2023-03-21T21:42:48.490Z,8.20
2023-03-21T21:45:21.155Z,9.10
2023-03-21T21:47:53.748Z,8.02
2023-03-21T21:50:27.932Z,8.27
2023-03-21T21:53:04.540Z,8.45
2023-03-21T21:55:38.004Z,8.48
2023-03-21T21:58:13.738Z,8.23
2023-03-21T22:00:47.422Z,7.90
2023-03-21T22:03:22.542Z,7.60
2023-03-21T22:06:02.876Z,8.55
2023-03-21T22:08:37.115Z,8.52
2023-03-21T22:11:09.692Z,7.63
2023-03-21T22:13:43.803Z,7.32
2023-03-21T22:16:16.337Z,7.07
2023-03-21T22:18:48.931Z,7.40
2023-03-21T22:21:21.569Z,7.53
2023-03-21T22:23:54.063Z,6.85
2023-03-21T22:26:26.771Z,7.90
2023-03-21T22:29:00.201Z,6.97
2023-03-21T22:31:32.699Z,7.05
2023-03-21T22:34:05.669Z,7.28
2023-03-21T22:36:38.146Z,7.90
2023-03-21T22:39:10.656Z,7.45
2023-03-21T22:41:44.903Z,8.07
2023-03-21T22:44:17.470Z,7.70
2023-03-21T22:46:50.172Z,8.80
2023-03-21T22:49:22.666Z,7.28
2023-03-21T22:51:55.526Z,7.55
2023-03-21T22:54:28.017Z,8.20
2023-03-21T22:57:01.635Z,7.95
2023-03-21T22:59:34.389Z,7.38
2023-03-21T23:02:07.898Z,7.50
2023-03-21T23:04:40.841Z,7.93
2023-03-21T23:07:13.414Z,7.32
2023-03-21T23:09:46.148Z,7.35
2023-03-21T23:12:18.732Z,8.07
2023-03-21T23:14:51.363Z,7.82
2023-03-21T23:17:23.912Z,7.35
2023-03-21T23:19:56.564Z,8.20
2023-03-21T23:22:34.079Z,6.82
2023-03-21T23:25:07.801Z,7.60
2023-03-21T23:27:40.710Z,8.57
2023-03-21T23:30:13.375Z,7.88
2023-03-21T23:32:45.979Z,7.90
2023-03-21T23:35:18.729Z,8.05
2023-03-21T23:37:52.773Z,8.80
2023-03-21T23:40:25.638Z,7.85
2023-03-21T23:42:59.868Z,7.53
2023-03-21T23:45:32.329Z,8.27
2023-03-21T23:48:05.157Z,6.88
2023-03-21T23:50:38.054Z,7.55
2023-03-21T23:55:46.884Z,7.22
2023-03-21T23:58:25.852Z,7.03
